createdAt,value
2017-10-25T00:00:09.286Z,0
2017-10-25T00:01:08.926Z,0
2017-10-25T00:02:08.958Z,0
2017-10-25T00:03:08.929Z,0
2017-10-25T00:04:08.899Z,0
2017-10-25T00:05:08.891Z,0
2017-10-25T00:06:08.987Z,0
2017-10-25T00:07:09.213Z,0
2017-10-25T00:08:08.865Z,0
2017-10-25T00:09:08.868Z,0
2017-10-25T00:10:08.849Z,0
2017-10-25T00:11:08.838Z,0
2017-10-25T00:12:08.829Z,0
2017-10-25T00:13:09.220Z,0
2017-10-25T00:14:09.162Z,0
2017-10-25T00:15:09.156Z,0
2017-10-25T00:16:09.135Z,0
2017-10-25T00:17:08.803Z,0
2017-10-25T00:18:08.779Z,0
2017-10-25T00:19:08.768Z,0
2017-10-25T00:20:08.795Z,0
2017-10-25T00:21:08.751Z,0
2017-10-25T00:22:09.247Z,0
2017-10-25T00:23:09.072Z,0
2017-10-25T00:24:08.873Z,0
2017-10-25T00:25:08.714Z,0
2017-10-25T00:26:09.484Z,0
2017-10-25T00:27:09.178Z,0
2017-10-25T00:28:09.028Z,0
2017-10-25T00:29:09.053Z,0
2017-10-25T00:30:08.670Z,0
2017-10-25T00:31:08.714Z,0
2017-10-25T00:32:08.653Z,0
2017-10-25T00:33:08.718Z,0
2017-10-25T00:34:08.719Z,0
2017-10-25T00:35:08.967Z,0
2017-10-25T00:36:09.124Z,0
2017-10-25T00:37:08.608Z,0
2017-10-25T00:38:08.607Z,0
2017-10-25T00:39:08.964Z,0
2017-10-25T00:40:08.582Z,0
2017-10-25T00:41:08.573Z,0
2017-10-25T00:42:08.905Z,0
2017-10-25T00:43:08.706Z,0
2017-10-25T00:44:08.557Z,0
2017-10-25T00:45:08.538Z,0
2017-10-25T00:46:08.530Z,0
2017-10-25T00:47:08.522Z,0
2017-10-25T00:48:08.851Z,0
2017-10-25T00:49:08.529Z,0
2017-10-25T00:50:08.494Z,0
2017-10-25T00:51:08.507Z,0
2017-10-25T00:52:08.475Z,0
2017-10-25T00:53:08.470Z,0
2017-10-25T00:54:08.460Z,0
2017-10-25T00:55:08.451Z,0
2017-10-25T00:56:08.784Z,0
2017-10-25T00:57:08.772Z,0
2017-10-25T00:58:08.425Z,0
2017-10-25T00:59:08.414Z,0
2017-10-25T01:00:08.406Z,0
2017-10-25T01:01:08.737Z,0
2017-10-25T01:02:08.409Z,0
2017-10-25T01:03:08.380Z,0
2017-10-25T01:04:08.711Z,0
2017-10-25T01:05:08.701Z,0
2017-10-25T01:06:08.692Z,0
2017-10-25T01:07:08.683Z,0
2017-10-25T01:08:08.336Z,0
2017-10-25T01:09:08.330Z,0
2017-10-25T01:10:08.317Z,0
2017-10-25T01:11:08.308Z,0
2017-10-25T01:12:08.304Z,0
2017-10-25T01:13:08.290Z,0
2017-10-25T01:14:08.282Z,0
2017-10-25T01:15:08.614Z,0
2017-10-25T01:16:08.263Z,0
2017-10-25T01:17:08.255Z,0
2017-10-25T01:18:08.586Z,0
2017-10-25T01:19:08.237Z,0
2017-10-25T01:20:08.570Z,0
2017-10-25T01:21:08.559Z,0
2017-10-25T01:22:08.550Z,0
2017-10-25T01:23:08.223Z,0
2017-10-25T01:24:08.190Z,0
2017-10-25T01:25:08.184Z,0
2017-10-25T01:26:08.176Z,0
2017-10-25T01:27:08.522Z,0
2017-10-25T01:28:08.510Z,0
2017-10-25T01:29:08.149Z,0
2017-10-25T01:30:08.162Z,0
2017-10-25T01:31:08.130Z,0
2017-10-25T01:32:08.122Z,0
2017-10-25T01:33:08.114Z,0
2017-10-25T01:34:08.104Z,0
2017-10-25T01:35:08.456Z,0
2017-10-25T01:36:08.428Z,0
2017-10-25T01:37:08.423Z,0
2017-10-25T01:38:08.077Z,0
2017-10-25T01:39:08.059Z,0
2017-10-25T01:40:08.051Z,0
2017-10-25T01:41:08.055Z,0
2017-10-25T01:42:08.035Z,0
2017-10-25T01:43:08.367Z,0
2017-10-25T01:44:08.376Z,0
2017-10-25T01:45:08.007Z,0
2017-10-25T01:46:08.029Z,0
2017-10-25T01:47:07.991Z,0
2017-10-25T01:48:08.331Z,0
2017-10-25T01:49:07.973Z,0
2017-10-25T01:50:08.301Z,0
2017-10-25T01:51:07.961Z,0
2017-10-25T01:52:07.957Z,0
2017-10-25T01:53:07.936Z,0
2017-10-25T01:54:07.929Z,0
2017-10-25T01:55:07.921Z,0
2017-10-25T01:56:08.266Z,0
2017-10-25T01:57:07.902Z,0
2017-10-25T01:58:07.894Z,0
2017-10-25T01:59:08.224Z,0
2017-10-25T02:00:07.877Z,0
2017-10-25T02:01:07.867Z,0
2017-10-25T02:02:07.858Z,0
2017-10-25T02:03:08.191Z,0
2017-10-25T02:04:08.184Z,0
2017-10-25T02:05:07.832Z,0
2017-10-25T02:06:07.824Z,0
2017-10-25T02:07:07.842Z,0
2017-10-25T02:08:07.805Z,0
2017-10-25T02:09:08.137Z,0
2017-10-25T02:10:08.131Z,0
2017-10-25T02:11:07.780Z,0
2017-10-25T02:12:08.109Z,0
2017-10-25T02:13:07.760Z,0
2017-10-25T02:14:07.752Z,0
2017-10-25T02:15:07.746Z,0
2017-10-25T02:16:07.735Z,0
2017-10-25T02:17:07.726Z,0
2017-10-25T02:18:07.718Z,0
2017-10-25T02:19:07.708Z,0
2017-10-25T02:20:07.700Z,0
2017-10-25T02:21:07.710Z,0
2017-10-25T02:22:08.025Z,0
2017-10-25T02:23:08.013Z,0
2017-10-25T02:24:07.664Z,0
2017-10-25T02:25:08.038Z,0
2017-10-25T02:26:07.988Z,0
2017-10-25T02:27:07.997Z,0
2017-10-25T02:28:07.980Z,0
2017-10-25T02:29:07.621Z,0
2017-10-25T02:30:07.953Z,0
2017-10-25T02:31:07.944Z,0
2017-10-25T02:32:07.596Z,0
2017-10-25T02:33:07.586Z,0
2017-10-25T02:34:07.589Z,0
2017-10-25T02:35:07.911Z,0
2017-10-25T02:36:07.914Z,0
2017-10-25T02:37:07.891Z,0
2017-10-25T02:38:07.542Z,0
2017-10-25T02:39:07.533Z,0
2017-10-25T02:40:07.881Z,0
2017-10-25T02:41:07.854Z,0
2017-10-25T02:42:07.505Z,0
2017-10-25T02:43:07.505Z,0
2017-10-25T02:44:07.517Z,0
2017-10-25T02:45:07.480Z,0
2017-10-25T02:46:07.472Z,0
2017-10-25T02:47:07.472Z,0
2017-10-25T02:48:07.512Z,0
2017-10-25T02:49:07.474Z,0
2017-10-25T02:50:07.478Z,0
2017-10-25T02:51:07.780Z,0
2017-10-25T02:52:07.431Z,0
2017-10-25T02:53:07.408Z,0
2017-10-25T02:54:07.755Z,0
2017-10-25T02:55:07.391Z,0
2017-10-25T02:56:07.380Z,0
2017-10-25T02:57:07.373Z,0
2017-10-25T02:58:07.719Z,0
2017-10-25T02:59:07.354Z,0
2017-10-25T03:00:07.345Z,0
2017-10-25T03:01:07.337Z,0
2017-10-25T03:02:07.329Z,0
2017-10-25T03:03:07.675Z,0
2017-10-25T03:04:07.309Z,0
2017-10-25T03:05:07.307Z,0
2017-10-25T03:06:07.291Z,0
2017-10-25T03:07:07.282Z,0
2017-10-25T03:08:07.276Z,0
2017-10-25T03:09:07.607Z,0
2017-10-25T03:10:07.256Z,0
2017-10-25T03:11:07.587Z,0
2017-10-25T03:12:07.238Z,0
2017-10-25T03:13:07.230Z,0
2017-10-25T03:14:07.221Z,0
2017-10-25T03:15:07.218Z,0
2017-10-25T03:16:07.203Z,0
2017-10-25T03:17:07.192Z,0
2017-10-25T03:18:07.524Z,0
2017-10-25T03:19:07.522Z,0
2017-10-25T03:20:07.541Z,0
2017-10-25T03:21:07.163Z,0
2017-10-25T03:22:07.540Z,0
2017-10-25T03:23:07.481Z,0
2017-10-25T03:24:07.479Z,0
2017-10-25T03:25:07.145Z,0
2017-10-25T03:26:07.119Z,0
2017-10-25T03:27:07.106Z,0
2017-10-25T03:28:07.098Z,0
2017-10-25T03:29:07.088Z,0
2017-10-25T03:30:07.422Z,0
2017-10-25T03:31:07.074Z,0
2017-10-25T03:32:07.062Z,0
2017-10-25T03:33:07.392Z,0
2017-10-25T03:34:07.384Z,0
2017-10-25T03:35:07.374Z,0
2017-10-25T03:36:07.367Z,0
2017-10-25T03:37:07.359Z,0
2017-10-25T03:38:07.348Z,0
2017-10-25T03:39:06.997Z,0
2017-10-25T03:40:07.344Z,0
2017-10-25T03:41:06.980Z,0
2017-10-25T03:42:06.973Z,0
2017-10-25T03:43:06.979Z,0
2017-10-25T03:44:06.955Z,0
2017-10-25T03:45:06.952Z,0
2017-10-25T03:46:06.997Z,0
2017-10-25T03:47:06.927Z,0
2017-10-25T03:48:06.918Z,0
2017-10-25T03:49:06.913Z,0
2017-10-25T03:50:06.920Z,0
2017-10-25T03:51:06.891Z,0
2017-10-25T03:52:07.228Z,0
2017-10-25T03:53:07.214Z,0
2017-10-25T03:54:07.205Z,0
2017-10-25T03:55:07.204Z,0
2017-10-25T03:56:07.204Z,0
2017-10-25T03:57:06.838Z,0
2017-10-25T03:58:06.870Z,0
2017-10-25T03:59:06.819Z,0
2017-10-25T04:00:06.812Z,0
2017-10-25T04:01:06.825Z,0
2017-10-25T04:02:06.804Z,0
2017-10-25T04:03:07.145Z,0
2017-10-25T04:04:06.779Z,0
2017-10-25T04:05:06.774Z,0
2017-10-25T04:06:06.759Z,0
2017-10-25T04:07:06.759Z,0
2017-10-25T04:08:06.742Z,0
2017-10-25T04:09:06.732Z,0
2017-10-25T04:10:06.743Z,0
2017-10-25T04:11:06.718Z,0
2017-10-25T04:12:06.704Z,0
2017-10-25T04:13:06.696Z,0
2017-10-25T04:14:06.707Z,0
2017-10-25T04:15:06.679Z,0
2017-10-25T04:16:07.018Z,0
2017-10-25T04:17:06.665Z,0
2017-10-25T04:18:06.685Z,0
2017-10-25T04:19:06.664Z,0
2017-10-25T04:20:06.973Z,0
2017-10-25T04:21:06.968Z,0
2017-10-25T04:22:06.967Z,0
2017-10-25T04:23:06.605Z,0
2017-10-25T04:24:06.957Z,0
2017-10-25T04:25:06.590Z,0
2017-10-25T04:26:06.582Z,0
2017-10-25T04:27:06.912Z,0
2017-10-25T04:28:06.906Z,0
2017-10-25T04:29:06.893Z,0
2017-10-25T04:30:06.558Z,0
2017-10-25T04:31:06.535Z,0
2017-10-25T04:32:06.529Z,0
2017-10-25T04:33:06.518Z,0
2017-10-25T04:34:06.851Z,0
2017-10-25T04:35:06.502Z,0
2017-10-25T04:36:06.491Z,0
2017-10-25T04:37:06.483Z,0
2017-10-25T04:38:06.823Z,0
2017-10-25T04:39:06.467Z,0
2017-10-25T04:40:06.458Z,0
2017-10-25T04:41:06.453Z,0
2017-10-25T04:42:06.783Z,0
2017-10-25T04:43:06.431Z,0
2017-10-25T04:44:06.803Z,0
2017-10-25T04:45:06.412Z,0
2017-10-25T04:46:06.745Z,0
2017-10-25T04:47:06.734Z,0
2017-10-25T04:48:06.725Z,0
2017-10-25T04:49:06.383Z,0
2017-10-25T04:50:06.737Z,0
2017-10-25T04:51:06.360Z,0
2017-10-25T04:52:06.692Z,0
2017-10-25T04:53:06.686Z,0
2017-10-25T04:54:06.335Z,0
2017-10-25T04:55:06.672Z,0
2017-10-25T04:56:06.318Z,0
2017-10-25T04:57:06.656Z,0
2017-10-25T04:58:06.297Z,0
2017-10-25T04:59:06.291Z,0
2017-10-25T05:00:06.635Z,0
2017-10-25T05:01:06.271Z,0
2017-10-25T05:02:06.263Z,0
2017-10-25T05:03:06.253Z,0
2017-10-25T05:04:06.247Z,0
2017-10-25T05:05:06.577Z,0
2017-10-25T05:06:06.568Z,0
2017-10-25T05:07:06.217Z,0
2017-10-25T05:08:06.271Z,0
2017-10-25T05:09:06.201Z,0
2017-10-25T05:10:06.195Z,0
2017-10-25T05:11:06.200Z,0
2017-10-25T05:12:06.198Z,0
2017-10-25T05:13:06.165Z,0
2017-10-25T05:14:06.158Z,0
2017-10-25T05:15:06.149Z,0
2017-10-25T05:16:06.484Z,0
2017-10-25T05:17:06.133Z,0
2017-10-25T05:18:06.122Z,0
2017-10-25T05:19:06.113Z,0
2017-10-25T05:20:06.104Z,0
2017-10-25T05:21:06.096Z,0
2017-10-25T05:22:06.088Z,0
2017-10-25T05:23:06.079Z,0
2017-10-25T05:24:06.414Z,0
2017-10-25T05:25:06.071Z,0
2017-10-25T05:26:06.053Z,0
2017-10-25T05:27:06.044Z,0
2017-10-25T05:28:06.036Z,0
2017-10-25T05:29:06.368Z,0
2017-10-25T05:30:06.018Z,0
2017-10-25T05:31:06.010Z,0
2017-10-25T05:32:06.342Z,0
2017-10-25T05:33:06.010Z,0
2017-10-25T05:34:05.982Z,0
2017-10-25T05:35:05.976Z,0
2017-10-25T05:36:06.308Z,0
2017-10-25T05:37:05.957Z,0
2017-10-25T05:38:06.288Z,0
2017-10-25T05:39:06.279Z,0
2017-10-25T05:40:05.932Z,0
2017-10-25T05:41:05.921Z,0
2017-10-25T05:42:06.265Z,0
2017-10-25T05:43:05.906Z,0
2017-10-25T05:44:05.895Z,0
2017-10-25T05:45:05.887Z,0
2017-10-25T05:46:06.217Z,0
2017-10-25T05:47:05.875Z,0
2017-10-25T05:48:05.861Z,0
2017-10-25T05:49:05.854Z,0
2017-10-25T05:50:06.215Z,0
2017-10-25T05:51:06.174Z,0
2017-10-25T05:52:05.827Z,0
2017-10-25T05:53:06.172Z,0
2017-10-25T05:54:05.810Z,0
2017-10-25T05:55:05.801Z,0
2017-10-25T05:56:05.793Z,0
2017-10-25T05:57:05.784Z,0
2017-10-25T05:58:05.775Z,0
2017-10-25T05:59:05.767Z,0
2017-10-25T06:00:06.104Z,0
2017-10-25T06:01:05.748Z,0
2017-10-25T06:02:05.746Z,0
2017-10-25T06:03:06.071Z,0
2017-10-25T06:04:05.727Z,0
2017-10-25T06:05:05.734Z,0
2017-10-25T06:06:06.046Z,0
2017-10-25T06:07:06.052Z,0
2017-10-25T06:08:05.687Z,0
2017-10-25T06:09:06.021Z,0
2017-10-25T06:10:05.673Z,0
2017-10-25T06:11:05.664Z,0
2017-10-25T06:12:05.994Z,0
2017-10-25T06:13:05.644Z,0
2017-10-25T06:14:05.977Z,0
2017-10-25T06:15:05.647Z,0
2017-10-25T06:16:05.619Z,0
2017-10-25T06:17:05.968Z,0
2017-10-25T06:18:05.605Z,0
2017-10-25T06:19:05.936Z,0
2017-10-25T06:20:05.587Z,0
2017-10-25T06:21:05.917Z,0
2017-10-25T06:22:05.568Z,0
2017-10-25T06:23:05.558Z,0
2017-10-25T06:24:05.554Z,0
2017-10-25T06:25:05.885Z,0
2017-10-25T06:26:05.539Z,0
2017-10-25T06:27:05.866Z,0
2017-10-25T06:28:05.522Z,0
2017-10-25T06:29:05.849Z,0
2017-10-25T06:30:05.503Z,0
2017-10-25T06:31:05.492Z,0
2017-10-25T06:32:05.485Z,0
2017-10-25T06:33:05.493Z,0
2017-10-25T06:34:05.808Z,0
2017-10-25T06:35:05.472Z,0
2017-10-25T06:36:05.450Z,0
2017-10-25T06:37:05.444Z,0
2017-10-25T06:38:05.771Z,0
2017-10-25T06:39:05.767Z,0
2017-10-25T06:40:05.417Z,0
2017-10-25T06:41:05.409Z,0
2017-10-25T06:42:05.745Z,0
2017-10-25T06:43:05.393Z,0
2017-10-25T06:44:05.383Z,0
2017-10-25T06:45:05.727Z,0
2017-10-25T06:46:05.370Z,0
2017-10-25T06:47:05.703Z,0
2017-10-25T06:48:05.352Z,0
2017-10-25T06:49:05.342Z,0
2017-10-25T06:50:05.356Z,0
2017-10-25T06:51:05.326Z,0
2017-10-25T06:52:05.317Z,0
2017-10-25T06:53:05.316Z,0
2017-10-25T06:54:05.641Z,0
2017-10-25T06:55:05.295Z,0
2017-10-25T06:56:05.286Z,0
2017-10-25T06:57:05.278Z,0
2017-10-25T06:58:05.618Z,0
2017-10-25T06:59:05.260Z,0
2017-10-25T07:00:05.251Z,0
2017-10-25T07:01:05.582Z,0
2017-10-25T07:02:05.238Z,0
2017-10-25T07:03:05.229Z,0
2017-10-25T07:04:05.223Z,0
2017-10-25T07:05:05.212Z,0
2017-10-25T07:06:05.202Z,0
2017-10-25T07:07:05.541Z,0
2017-10-25T07:08:05.186Z,0
2017-10-25T07:09:05.178Z,0
2017-10-25T07:10:05.170Z,0
2017-10-25T07:11:05.183Z,0
2017-10-25T07:12:05.492Z,0
2017-10-25T07:13:05.145Z,0
2017-10-25T07:14:05.139Z,0
2017-10-25T07:15:05.130Z,0
2017-10-25T07:16:05.123Z,0
2017-10-25T07:17:05.112Z,0
2017-10-25T07:18:05.444Z,0
2017-10-25T07:19:05.438Z,0
2017-10-25T07:20:05.431Z,0
2017-10-25T07:21:05.418Z,0
2017-10-25T07:22:05.410Z,0
2017-10-25T07:23:05.409Z,0
2017-10-25T07:24:05.059Z,0
2017-10-25T07:25:05.410Z,0
2017-10-25T07:26:05.040Z,0
2017-10-25T07:27:05.031Z,0
2017-10-25T07:28:05.024Z,0
2017-10-25T07:29:05.043Z,0
2017-10-25T07:30:05.010Z,0
2017-10-25T07:31:04.999Z,0
2017-10-25T07:32:04.994Z,0
2017-10-25T07:33:04.984Z,0
2017-10-25T07:34:04.976Z,0
2017-10-25T07:35:05.312Z,0
2017-10-25T07:36:05.314Z,0
2017-10-25T07:37:05.294Z,0
2017-10-25T07:38:05.282Z,0
2017-10-25T07:39:04.938Z,0
2017-10-25T07:40:04.945Z,0
2017-10-25T07:41:04.920Z,0
2017-10-25T07:42:05.251Z,0
2017-10-25T07:43:05.247Z,0
2017-10-25T07:44:04.896Z,0
2017-10-25T07:45:04.891Z,0
2017-10-25T07:46:04.881Z,0
2017-10-25T07:47:05.217Z,0
2017-10-25T07:48:04.866Z,0
2017-10-25T07:49:05.210Z,0
2017-10-25T07:50:04.853Z,0
2017-10-25T07:51:04.844Z,0
2017-10-25T07:52:05.175Z,0
2017-10-25T07:53:04.982Z,0
2017-10-25T07:54:04.826Z,0
2017-10-25T07:55:04.829Z,0
2017-10-25T07:56:04.815Z,0
2017-10-25T07:57:04.797Z,0
2017-10-25T07:58:04.790Z,0
2017-10-25T07:59:04.779Z,0
2017-10-25T08:00:05.114Z,0
2017-10-25T08:01:05.105Z,0
2017-10-25T08:02:04.775Z,0
2017-10-25T08:03:04.750Z,0
2017-10-25T08:04:04.815Z,0
2017-10-25T08:05:05.096Z,0
2017-10-25T08:06:04.727Z,0
2017-10-25T08:07:04.720Z,0
2017-10-25T08:08:04.711Z,0
2017-10-25T08:09:05.055Z,0
2017-10-25T08:10:04.705Z,0
2017-10-25T08:11:05.029Z,0
2017-10-25T08:12:04.682Z,0
2017-10-25T08:13:04.674Z,0
2017-10-25T08:14:04.665Z,0
2017-10-25T08:15:04.678Z,0
2017-10-25T08:16:04.991Z,0
2017-10-25T08:17:04.646Z,0
2017-10-25T08:18:04.978Z,0
2017-10-25T08:19:04.635Z,0
2017-10-25T08:20:04.641Z,0
2017-10-25T08:21:04.617Z,0
2017-10-25T08:22:04.954Z,0
2017-10-25T08:23:04.604Z,0
2017-10-25T08:24:04.591Z,0
2017-10-25T08:25:04.716Z,0
2017-10-25T08:26:04.918Z,0
2017-10-25T08:27:04.911Z,0
2017-10-25T08:28:04.917Z,0
2017-10-25T08:29:04.558Z,0
2017-10-25T08:30:04.896Z,0
2017-10-25T08:31:04.547Z,0
2017-10-25T08:32:04.537Z,0
2017-10-25T08:33:04.547Z,0
2017-10-25T08:34:04.522Z,0
2017-10-25T08:35:04.527Z,0
2017-10-25T08:36:04.553Z,0
2017-10-25T08:37:04.881Z,0
2017-10-25T08:38:04.537Z,0
2017-10-25T08:39:04.826Z,0
2017-10-25T08:40:04.495Z,0
2017-10-25T08:41:04.555Z,0
2017-10-25T08:42:04.468Z,0
2017-10-25T08:43:04.804Z,0
2017-10-25T08:44:04.799Z,0
2017-10-25T08:45:04.788Z,0
2017-10-25T08:46:04.780Z,0
2017-10-25T08:47:04.438Z,0
2017-10-25T08:48:04.426Z,0
2017-10-25T08:49:05.469Z,0
2017-10-25T08:50:04.412Z,0
2017-10-25T08:51:04.409Z,0
2017-10-25T08:52:04.398Z,0
2017-10-25T08:53:04.394Z,0
2017-10-25T08:54:04.727Z,0
2017-10-25T08:55:04.380Z,0
2017-10-25T08:56:04.380Z,0
2017-10-25T08:57:04.445Z,0
2017-10-25T08:58:04.361Z,0
2017-10-25T08:59:04.350Z,0
2017-10-25T09:00:04.344Z,0
2017-10-25T09:01:04.709Z,0
2017-10-25T09:02:04.679Z,0
2017-10-25T09:03:04.327Z,0
2017-10-25T09:04:04.317Z,0
2017-10-25T09:05:04.331Z,0
2017-10-25T09:06:04.303Z,0
2017-10-25T09:07:04.661Z,0
2017-10-25T09:08:04.631Z,0
2017-10-25T09:09:04.280Z,0
2017-10-25T09:10:04.279Z,0
2017-10-25T09:11:04.271Z,0
2017-10-25T09:12:04.617Z,0
2017-10-25T09:13:04.265Z,0
2017-10-25T09:14:04.248Z,0
2017-10-25T09:15:04.242Z,0
2017-10-25T09:16:04.233Z,0
2017-10-25T09:17:04.227Z,0
2017-10-25T09:18:04.580Z,0
2017-10-25T09:19:04.216Z,0
2017-10-25T09:20:04.221Z,0
2017-10-25T09:21:04.202Z,0
2017-10-25T09:22:04.195Z,0
2017-10-25T09:23:04.230Z,0
2017-10-25T09:24:04.550Z,0
2017-10-25T09:25:04.176Z,0
2017-10-25T09:26:04.510Z,0
2017-10-25T09:27:04.162Z,0
2017-10-25T09:28:04.497Z,0
2017-10-25T09:29:04.160Z,0
2017-10-25T09:30:04.140Z,0
2017-10-25T09:31:04.134Z,0
2017-10-25T09:32:04.470Z,0
2017-10-25T09:33:04.122Z,0
2017-10-25T09:34:04.119Z,0
2017-10-25T09:35:04.108Z,0
2017-10-25T09:36:04.461Z,0
2017-10-25T09:37:04.096Z,0
2017-10-25T09:38:04.432Z,0
2017-10-25T09:39:04.085Z,0
2017-10-25T09:40:04.085Z,0
2017-10-25T09:41:04.411Z,0
2017-10-25T09:42:04.407Z,0
2017-10-25T09:43:04.060Z,0.38
2017-10-25T09:44:04.052Z,0
2017-10-25T09:45:04.388Z,0
2017-10-25T09:46:04.042Z,0
2017-10-25T09:47:04.034Z,0
2017-10-25T09:48:04.368Z,0.57
2017-10-25T09:49:04.022Z,2.1
2017-10-25T09:50:04.015Z,4.2
2017-10-25T09:51:04.355Z,4.39
2017-10-25T09:52:04.340Z,1.62
2017-10-25T09:53:04.001Z,0
2017-10-25T09:54:04.335Z,0
2017-10-25T09:55:03.983Z,4.2
2017-10-25T09:56:04.323Z,4.58
2017-10-25T09:57:04.327Z,5.16
2017-10-25T09:58:03.967Z,6.3
2017-10-25T09:59:03.959Z,11.27
2017-10-25T10:00:03.954Z,11.08
2017-10-25T10:01:03.948Z,10.41
2017-10-25T10:02:03.942Z,9.17
2017-10-25T10:03:04.295Z,9.36
2017-10-25T10:04:03.929Z,11.37
2017-10-25T10:05:03.926Z,10.31
2017-10-25T10:06:03.920Z,11.38
2017-10-25T10:07:03.914Z,15.01
2017-10-25T10:08:04.254Z,15.19
2017-10-25T10:09:03.900Z,13.57
2017-10-25T10:10:04.288Z,11.85
2017-10-25T10:11:03.888Z,12.51
2017-10-25T10:12:03.884Z,15.67
2017-10-25T10:13:03.879Z,18.45
2017-10-25T10:14:03.870Z,17.4
2017-10-25T10:15:03.871Z,20.84
2017-10-25T10:16:03.860Z,19.99
2017-10-25T10:17:03.854Z,18.94
2017-10-25T10:18:03.849Z,17.21
2017-10-25T10:19:03.844Z,20.56
2017-10-25T10:20:03.837Z,20.37
2017-10-25T10:21:03.829Z,29.74
2017-10-25T10:22:04.166Z,33.57
2017-10-25T10:23:03.820Z,35.68
2017-10-25T10:24:03.817Z,34.53
2017-10-25T10:25:04.147Z,31.85
2017-10-25T10:26:03.806Z,35.2
2017-10-25T10:27:04.150Z,30.78
2017-10-25T10:28:04.131Z,29.73
2017-10-25T10:29:03.788Z,26.86
2017-10-25T10:30:03.783Z,28.01
2017-10-25T10:31:03.777Z,26.3
2017-10-25T10:32:04.117Z,23.43
2017-10-25T10:33:04.108Z,25.92
2017-10-25T10:34:03.762Z,26.01
2017-10-25T10:35:03.767Z,27.26
2017-10-25T10:36:03.753Z,29.27
2017-10-25T10:37:03.746Z,32.52
2017-10-25T10:38:03.740Z,30.9
2017-10-25T10:39:03.735Z,29.55
2017-10-25T10:40:03.731Z,30.8
2017-10-25T10:41:04.085Z,30.59
2017-10-25T10:42:03.723Z,29.55
2017-10-25T10:43:04.061Z,27.44
2017-10-25T10:44:03.713Z,26.29
2017-10-25T10:45:04.051Z,25.9
2017-10-25T10:46:03.701Z,26.29
2017-10-25T10:47:04.087Z,24.48
2017-10-25T10:48:04.027Z,26.1
2017-10-25T10:49:03.686Z,26.57
2017-10-25T10:50:03.702Z,25.9
2017-10-25T10:51:03.677Z,23.8
2017-10-25T10:52:03.666Z,22.74
2017-10-25T10:53:03.662Z,22.47
2017-10-25T10:54:03.665Z,21.21
2017-10-25T10:55:04.012Z,20.54
2017-10-25T10:56:04.003Z,19.49
2017-10-25T10:57:03.643Z,21.97
2017-10-25T10:58:03.973Z,23.61
2017-10-25T10:59:03.628Z,22.93
2017-10-25T11:00:03.625Z,23.98
2017-10-25T11:01:03.618Z,22.37
2017-10-25T11:02:03.612Z,21.61
2017-10-25T11:03:03.946Z,21.12
2017-10-25T11:04:03.602Z,22.56
2017-10-25T11:05:03.952Z,24.66
2017-10-25T11:06:03.590Z,24.66
2017-10-25T11:07:03.584Z,25.62
2017-10-25T11:08:03.578Z,26.87
2017-10-25T11:09:03.572Z,25.15
2017-10-25T11:10:03.568Z,26.78
2017-10-25T11:11:03.911Z,29.94
2017-10-25T11:12:03.557Z,28.59
2017-10-25T11:13:03.574Z,27.36
2017-10-25T11:14:03.549Z,28.12
2017-10-25T11:15:03.884Z,28.98
2017-10-25T11:16:03.537Z,29.86
2017-10-25T11:17:03.882Z,35.5
2017-10-25T11:18:03.527Z,33.97
2017-10-25T11:19:03.521Z,32.44
2017-10-25T11:20:03.517Z,31.29
2017-10-25T11:21:03.512Z,32.06
2017-10-25T11:22:03.505Z,35.41
2017-10-25T11:23:03.500Z,34.93
2017-10-25T11:24:03.497Z,33.97
2017-10-25T11:25:03.836Z,33.01
2017-10-25T11:26:03.845Z,30.15
2017-10-25T11:27:03.496Z,30.81
2017-10-25T11:28:03.499Z,39.33
2017-10-25T11:29:03.473Z,36.84
2017-10-25T11:30:03.471Z,35.79
2017-10-25T11:31:03.463Z,35.58
2017-10-25T11:32:03.809Z,35.96
2017-10-25T11:33:03.455Z,35.2
2017-10-25T11:34:03.791Z,33.95
2017-10-25T11:35:03.443Z,32.33
2017-10-25T11:36:03.441Z,32.04
2017-10-25T11:37:03.442Z,28.02
2017-10-25T11:38:03.427Z,27.36
2017-10-25T11:39:03.424Z,26.68
2017-10-25T11:40:03.425Z,29.84
2017-10-25T11:41:03.416Z,29.74
2017-10-25T11:42:03.411Z,28.79
2017-10-25T11:43:03.404Z,30.99
2017-10-25T11:44:03.402Z,30.9
2017-10-25T11:45:03.396Z,33.67
2017-10-25T11:46:03.737Z,35.58
2017-10-25T11:47:03.722Z,32.81
2017-10-25T11:48:03.380Z,30.99
2017-10-25T11:49:03.373Z,30.03
2017-10-25T11:50:03.370Z,32.81
2017-10-25T11:51:03.366Z,35.96
2017-10-25T11:52:03.703Z,31.85
2017-10-25T11:53:03.693Z,32.14
2017-10-25T11:54:03.352Z,31.18
2017-10-25T11:55:03.696Z,30.51
2017-10-25T11:56:03.354Z,30.9
2017-10-25T11:57:03.673Z,28.12
2017-10-25T11:58:03.694Z,28.3
2017-10-25T11:59:03.330Z,27.05
2017-10-25T12:00:03.320Z,26.29
2017-10-25T12:01:03.316Z,24.57
2017-10-25T12:02:03.310Z,27.44
2017-10-25T12:03:03.306Z,25.04
2017-10-25T12:04:03.636Z,23.33
2017-10-25T12:05:03.634Z,20.36
2017-10-25T12:06:03.291Z,20.65
2017-10-25T12:07:03.285Z,22.37
2017-10-25T12:08:03.614Z,20.84
2017-10-25T12:09:03.275Z,20.55
2017-10-25T12:10:03.268Z,18.54
2017-10-25T12:11:03.263Z,18.07
2017-10-25T12:12:03.258Z,18.16
2017-10-25T12:13:03.253Z,22.86
2017-10-25T12:14:03.245Z,25.54
2017-10-25T12:15:03.243Z,25.92
2017-10-25T12:16:03.577Z,25.82
2017-10-25T12:17:03.580Z,28.31
2017-10-25T12:18:03.566Z,31.37
2017-10-25T12:19:03.220Z,30.4
2017-10-25T12:20:03.560Z,28.2
2017-10-25T12:21:03.211Z,27.34
2017-10-25T12:22:03.212Z,27.05
2017-10-25T12:23:03.539Z,28.77
2017-10-25T12:24:03.193Z,28.2
2017-10-25T12:25:03.193Z,28.77
2017-10-25T12:26:03.523Z,33.36
2017-10-25T12:27:03.204Z,33.65
2017-10-25T12:28:03.172Z,38.74
2017-10-25T12:29:03.505Z,38.17
2017-10-25T12:30:03.162Z,37.02
2017-10-25T12:31:03.156Z,36.54
2017-10-25T12:32:03.505Z,33.95
2017-10-25T12:33:03.486Z,32.89
2017-10-25T12:34:03.140Z,32.9
2017-10-25T12:35:03.136Z,32.42
2017-10-25T12:36:03.129Z,29.94
2017-10-25T12:37:03.463Z,29.08
2017-10-25T12:38:03.118Z,27.45
2017-10-25T12:39:03.129Z,29.08
2017-10-25T12:40:03.108Z,30.32
2017-10-25T12:41:03.442Z,32.04
2017-10-25T12:42:03.455Z,36.92
2017-10-25T12:43:03.096Z,35.96
2017-10-25T12:44:03.086Z,33.95
2017-10-25T12:45:03.422Z,35.49
2017-10-25T12:46:03.414Z,38.35
2017-10-25T12:47:03.073Z,38.17
2017-10-25T12:48:03.069Z,36.25
2017-10-25T12:49:03.062Z,36.15
2017-10-25T12:50:03.057Z,36.63
2017-10-25T12:51:03.405Z,34.34
2017-10-25T12:52:03.177Z,36.27
2017-10-25T12:53:03.169Z,41.34
2017-10-25T12:54:03.376Z,41.53
2017-10-25T12:55:03.378Z,40
2017-10-25T12:56:03.031Z,38.76
2017-10-25T12:57:03.379Z,37.23
2017-10-25T12:58:03.354Z,36.84
2017-10-25T12:59:03.352Z,37.49
2017-10-25T13:00:03.349Z,34.91
2017-10-25T13:01:03.363Z,33.09
2017-10-25T13:02:03.344Z,35.29
2017-10-25T13:03:03.334Z,34.91
2017-10-25T13:04:02.991Z,34.53
2017-10-25T13:05:02.981Z,35.22
2017-10-25T13:06:02.981Z,34.63
2017-10-25T13:07:02.991Z,36.06
2017-10-25T13:08:02.966Z,36.15
2017-10-25T13:09:02.960Z,35.6
2017-10-25T13:10:02.958Z,39.33
2017-10-25T13:11:02.952Z,41.34
2017-10-25T13:12:02.954Z,40.77
2017-10-25T13:13:02.944Z,41.82
2017-10-25T13:14:03.276Z,46.61
2017-10-25T13:15:03.287Z,48.9
2017-10-25T13:16:03.274Z,48.59
2017-10-25T13:17:02.923Z,44.67
2017-10-25T13:18:02.917Z,42.47
2017-10-25T13:19:02.915Z,40.36
2017-10-25T13:20:02.905Z,43.04
2017-10-25T13:21:03.242Z,42.47
2017-10-25T13:22:03.236Z,41.22
2017-10-25T13:23:02.892Z,42.08
2017-10-25T13:24:02.887Z,42.47
2017-10-25T13:25:02.880Z,39.89
2017-10-25T13:26:03.216Z,40.65
2017-10-25T13:27:03.211Z,38.17
2017-10-25T13:28:03.206Z,38.26
2017-10-25T13:29:03.205Z,36.73
2017-10-25T13:30:02.859Z,37.68
2017-10-25T13:31:02.850Z,38.83
2017-10-25T13:32:02.848Z,39.12
2017-10-25T13:33:03.178Z,39.5
2017-10-25T13:34:03.174Z,39.79
2017-10-25T13:35:03.196Z,38.93
2017-10-25T13:36:02.824Z,37.59
2017-10-25T13:37:02.822Z,36.82
2017-10-25T13:38:02.816Z,36.52
2017-10-25T13:39:02.811Z,36.25
2017-10-25T13:40:02.815Z,36.23
2017-10-25T13:41:02.797Z,35.2
2017-10-25T13:42:02.793Z,35.49
2017-10-25T13:43:03.132Z,36.15
2017-10-25T13:44:03.120Z,36.54
2017-10-25T13:45:02.779Z,36.44
2017-10-25T13:46:02.772Z,35.77
2017-10-25T13:47:02.767Z,39.22
2017-10-25T13:48:02.772Z,39.69
2017-10-25T13:49:02.759Z,38.64
2017-10-25T13:50:03.091Z,39.4
2017-10-25T13:51:03.085Z,40.26
2017-10-25T13:52:02.741Z,39.9
2017-10-25T13:53:02.734Z,40.38
2017-10-25T13:54:02.731Z,44.38
2017-10-25T13:55:02.728Z,43.62
2017-10-25T13:56:02.725Z,40.65
2017-10-25T13:57:02.723Z,43.04
2017-10-25T13:58:02.730Z,41.32
2017-10-25T13:59:02.708Z,40.65
2017-10-25T14:00:02.703Z,40.46
2017-10-25T14:01:02.711Z,39.22
2017-10-25T14:02:02.693Z,37.88
2017-10-25T14:03:02.687Z,38.45
2017-10-25T14:04:02.698Z,38.07
2017-10-25T14:05:02.677Z,37.11
2017-10-25T14:06:02.669Z,37.78
2017-10-25T14:07:02.690Z,37.02
2017-10-25T14:08:03.003Z,36.35
2017-10-25T14:09:02.655Z,35.39
2017-10-25T14:10:02.648Z,35.58